sensor_id;sensor_type;location;lat;lon;timestamp;temperature;humidity
52323;DHT22;38263;52.920;6.238;2023-05-14T00:01:59;12.00;99.90
52323;DHT22;38263;52.920;6.238;2023-05-14T00:09:17;11.70;99.90
52323;DHT22;38263;52.920;6.238;2023-05-14T00:14:08;11.70;99.90
52323;DHT22;38263;52.920;6.238;2023-05-14T00:21:26;11.80;99.90
52323;DHT22;38263;52.920;6.238;2023-05-14T00:23:51;11.70;99.90
52323;DHT22;38263;52.920;6.238;2023-05-14T00:36:02;11.60;99.90
52323;DHT22;38263;52.920;6.238;2023-05-14T00:40:54;11.80;99.90
52323;DHT22;38263;52.920;6.238;2023-05-14T00:45:49;11.70;99.90
52323;DHT22;38263;52.920;6.238;2023-05-14T00:50:43;11.50;99.90
52323;DHT22;38263;52.920;6.238;2023-05-14T00:53:09;11.60;99.90
52323;DHT22;38263;52.920;6.238;2023-05-14T00:55:37;11.50;99.90
52323;DHT22;38263;52.920;6.238;2023-05-14T00:58:11;11.40;99.90
52323;DHT22;38263;52.920;6.238;2023-05-14T01:00:38;11.50;99.90
52323;DHT22;38263;52.920;6.238;2023-05-14T01:14:26;11.40;99.90
52323;DHT22;38263;52.920;6.238;2023-05-14T01:16:56;11.20;99.90
52323;DHT22;38263;52.920;6.238;2023-05-14T01:22:08;11.30;99.90
52323;DHT22;38263;52.920;6.238;2023-05-14T01:32:38;11.00;99.90
52323;DHT22;38263;52.920;6.238;2023-05-14T01:35:05;11.10;99.90
52323;DHT22;38263;52.920;6.238;2023-05-14T01:39:59;10.90;99.90
52323;DHT22;38263;52.920;6.238;2023-05-14T01:42:25;10.90;99.90
52323;DHT22;38263;52.920;6.238;2023-05-14T01:59:28;10.80;99.90
52323;DHT22;38263;52.920;6.238;2023-05-14T02:06:46;10.60;99.90
52323;DHT22;38263;52.920;6.238;2023-05-14T02:09:12;10.40;99.90
52323;DHT22;38263;52.920;6.238;2023-05-14T02:14:03;10.30;99.90
52323;DHT22;38263;52.920;6.238;2023-05-14T02:18:54;10.60;99.90
52323;DHT22;38263;52.920;6.238;2023-05-14T02:26:13;10.50;99.90
52323;DHT22;38263;52.920;6.238;2023-05-14T02:52:59;10.70;99.90
52323;DHT22;38263;52.920;6.238;2023-05-14T03:02:44;10.60;99.90
52323;DHT22;38263;52.920;6.238;2023-05-14T03:14:54;10.70;99.90
52323;DHT22;38263;52.920;6.238;2023-05-14T03:27:05;10.60;99.90
52323;DHT22;38263;52.920;6.238;2023-05-14T03:39:15;10.30;99.90
52323;DHT22;38263;52.920;6.238;2023-05-14T04:03:41;10.30;99.90
52323;DHT22;38263;52.920;6.238;2023-05-14T04:13:24;10.40;99.90
52323;DHT22;38263;52.920;6.238;2023-05-14T04:18:16;10.50;99.90
52323;DHT22;38263;52.920;6.238;2023-05-14T04:45:04;10.80;99.90
52323;DHT22;38263;52.920;6.238;2023-05-14T04:49:56;10.80;99.90
52323;DHT22;38263;52.920;6.238;2023-05-14T05:04:33;11.10;99.90
52323;DHT22;38263;52.920;6.238;2023-05-14T05:06:59;11.10;99.90
52323;DHT22;38263;52.920;6.238;2023-05-14T05:11:50;11.50;99.90
52323;DHT22;38263;52.920;6.238;2023-05-14T05:26:26;12.20;99.90
52323;DHT22;38263;52.920;6.238;2023-05-14T05:28:52;12.20;99.90
52323;DHT22;38263;52.920;6.238;2023-05-14T05:50:47;13.00;99.90
52323;DHT22;38263;52.920;6.238;2023-05-14T06:00:33;12.80;99.90
52323;DHT22;38263;52.920;6.238;2023-05-14T06:05:25;12.70;99.90
52323;DHT22;38263;52.920;6.238;2023-05-14T06:07:51;12.90;99.90
52323;DHT22;38263;52.920;6.238;2023-05-14T06:17:36;12.80;99.90
52323;DHT22;38263;52.920;6.238;2023-05-14T06:24:56;13.20;99.90
52323;DHT22;38263;52.920;6.238;2023-05-14T06:34:43;13.90;99.90
52323;DHT22;38263;52.920;6.238;2023-05-14T06:39:36;13.80;99.90
52323;DHT22;38263;52.920;6.238;2023-05-14T06:46:53;14.20;99.90
52323;DHT22;38263;52.920;6.238;2023-05-14T06:59:04;14.50;99.90
52323;DHT22;38263;52.920;6.238;2023-05-14T07:03:55;14.80;99.90
52323;DHT22;38263;52.920;6.238;2023-05-14T07:16:06;14.90;99.90
52323;DHT22;38263;52.920;6.238;2023-05-14T07:23:29;14.80;99.90
52323;DHT22;38263;52.920;6.238;2023-05-14T07:28:20;14.80;99.90
52323;DHT22;38263;52.920;6.238;2023-05-14T07:38:04;15.10;99.90
52323;DHT22;38263;52.920;6.238;2023-05-14T07:45:22;15.30;99.90
52323;DHT22;38263;52.920;6.238;2023-05-14T07:50:17;15.50;99.90
52323;DHT22;38263;52.920;6.238;2023-05-14T07:52:44;15.40;99.90
52323;DHT22;38263;52.920;6.238;2023-05-14T08:00:02;15.70;99.90
52323;DHT22;38263;52.920;6.238;2023-05-14T08:07:20;15.80;99.90
52323;DHT22;38263;52.920;6.238;2023-05-14T08:12:12;15.90;99.90
52323;DHT22;38263;52.920;6.238;2023-05-14T08:31:41;16.80;99.90
52323;DHT22;38263;52.920;6.238;2023-05-14T08:34:06;16.90;99.90
52323;DHT22;38263;52.920;6.238;2023-05-14T08:36:32;17.00;99.90
52323;DHT22;38263;52.920;6.238;2023-05-14T08:41:24;17.20;99.90
52323;DHT22;38263;52.920;6.238;2023-05-14T08:46:16;17.40;99.90
52323;DHT22;38263;52.920;6.238;2023-05-14T08:48:42;17.30;99.90
52323;DHT22;38263;52.920;6.238;2023-05-14T08:51:11;17.60;99.90
52323;DHT22;38263;52.920;6.238;2023-05-14T08:53:37;17.60;99.90
52323;DHT22;38263;52.920;6.238;2023-05-14T08:56:06;17.60;99.90
52323;DHT22;38263;52.920;6.238;2023-05-14T08:58:32;17.70;99.90
52323;DHT22;38263;52.920;6.238;2023-05-14T09:00:58;17.70;99.90
52323;DHT22;38263;52.920;6.238;2023-05-14T09:03:24;17.70;99.90
52323;DHT22;38263;52.920;6.238;2023-05-14T09:05:50;17.80;99.90
52323;DHT22;38263;52.920;6.238;2023-05-14T09:08:16;18.00;99.90
52323;DHT22;38263;52.920;6.238;2023-05-14T09:10:42;17.90;99.90
52323;DHT22;38263;52.920;6.238;2023-05-14T09:13:07;18.00;99.90
52323;DHT22;38263;52.920;6.238;2023-05-14T09:15:36;18.20;99.90
52323;DHT22;38263;52.920;6.238;2023-05-14T09:18:04;18.30;99.90
52323;DHT22;38263;52.920;6.238;2023-05-14T09:20:30;18.30;99.90
52323;DHT22;38263;52.920;6.238;2023-05-14T09:22:58;18.40;99.90
52323;DHT22;38263;52.920;6.238;2023-05-14T09:25:28;18.30;99.90
52323;DHT22;38263;52.920;6.238;2023-05-14T09:27:55;18.50;99.90
52323;DHT22;38263;52.920;6.238;2023-05-14T09:30:21;18.50;99.90
52323;DHT22;38263;52.920;6.238;2023-05-14T09:32:46;18.60;99.90
52323;DHT22;38263;52.920;6.238;2023-05-14T09:35:21;18.40;99.90
52323;DHT22;38263;52.920;6.238;2023-05-14T09:37:52;18.70;99.90
52323;DHT22;38263;52.920;6.238;2023-05-14T09:40:20;18.60;99.90
52323;DHT22;38263;52.920;6.238;2023-05-14T09:42:46;18.50;99.90
52323;DHT22;38263;52.920;6.238;2023-05-14T09:45:16;19.10;99.90
52323;DHT22;38263;52.920;6.238;2023-05-14T09:47:41;19.00;99.90
52323;DHT22;38263;52.920;6.238;2023-05-14T09:50:07;19.10;99.90
52323;DHT22;38263;52.920;6.238;2023-05-14T09:52:33;19.00;99.90
52323;DHT22;38263;52.920;6.238;2023-05-14T09:54:59;20.10;99.90
52323;DHT22;38263;52.920;6.238;2023-05-14T09:57:25;19.60;99.90
52323;DHT22;38263;52.920;6.238;2023-05-14T09:59:52;20.60;99.90
52323;DHT22;38263;52.920;6.238;2023-05-14T10:02:23;19.30;99.90
52323;DHT22;38263;52.920;6.238;2023-05-14T10:04:50;19.60;99.90
52323;DHT22;38263;52.920;6.238;2023-05-14T10:07:22;19.70;99.90
52323;DHT22;38263;52.920;6.238;2023-05-14T10:09:56;19.40;99.90
52323;DHT22;38263;52.920;6.238;2023-05-14T10:12:22;19.50;99.90
52323;DHT22;38263;52.920;6.238;2023-05-14T10:14:49;19.50;99.90
52323;DHT22;38263;52.920;6.238;2023-05-14T10:17:20;19.90;99.90
52323;DHT22;38263;52.920;6.238;2023-05-14T10:19:49;19.90;99.90
52323;DHT22;38263;52.920;6.238;2023-05-14T10:22:18;19.80;99.90
52323;DHT22;38263;52.920;6.238;2023-05-14T10:24:46;19.70;99.90
52323;DHT22;38263;52.920;6.238;2023-05-14T10:27:11;19.50;99.90
52323;DHT22;38263;52.920;6.238;2023-05-14T10:29:37;19.60;99.90
52323;DHT22;38263;52.920;6.238;2023-05-14T10:32:04;21.00;99.90
52323;DHT22;38263;52.920;6.238;2023-05-14T10:34:41;20.00;99.90
52323;DHT22;38263;52.920;6.238;2023-05-14T10:44:57;20.00;99.90
52323;DHT22;38263;52.920;6.238;2023-05-14T10:47:24;20.10;99.90
52323;DHT22;38263;52.920;6.238;2023-05-14T10:49:53;20.20;99.90
52323;DHT22;38263;52.920;6.238;2023-05-14T10:52:20;20.10;99.90
52323;DHT22;38263;52.920;6.238;2023-05-14T10:54:59;20.30;99.90
52323;DHT22;38263;52.920;6.238;2023-05-14T10:57:30;20.00;99.90
52323;DHT22;38263;52.920;6.238;2023-05-14T10:59:58;20.40;99.90
52323;DHT22;38263;52.920;6.238;2023-05-14T11:02:29;20.30;99.90
52323;DHT22;38263;52.920;6.238;2023-05-14T11:04:56;20.50;99.90
52323;DHT22;38263;52.920;6.238;2023-05-14T11:07:32;22.50;99.90
52323;DHT22;38263;52.920;6.238;2023-05-14T11:12:31;20.70;99.90
52323;DHT22;38263;52.920;6.238;2023-05-14T11:14:59;20.40;99.90
52323;DHT22;38263;52.920;6.238;2023-05-14T11:17:26;20.40;99.90
52323;DHT22;38263;52.920;6.238;2023-05-14T11:19:52;20.50;99.90
52323;DHT22;38263;52.920;6.238;2023-05-14T11:22:18;20.50;99.90
52323;DHT22;38263;52.920;6.238;2023-05-14T11:24:43;20.40;99.90
52323;DHT22;38263;52.920;6.238;2023-05-14T11:27:10;22.00;99.90
52323;DHT22;38263;52.920;6.238;2023-05-14T11:29:36;20.80;99.90
52323;DHT22;38263;52.920;6.238;2023-05-14T11:32:04;20.60;99.90
52323;DHT22;38263;52.920;6.238;2023-05-14T11:34:30;20.80;99.90
52323;DHT22;38263;52.920;6.238;2023-05-14T11:36:56;20.80;99.90
52323;DHT22;38263;52.920;6.238;2023-05-14T11:39:22;20.70;99.90
52323;DHT22;38263;52.920;6.238;2023-05-14T11:41:47;20.80;99.90
52323;DHT22;38263;52.920;6.238;2023-05-14T11:44:13;20.70;99.90
52323;DHT22;38263;52.920;6.238;2023-05-14T11:46:38;20.80;99.90
52323;DHT22;38263;52.920;6.238;2023-05-14T11:49:04;20.90;99.90
52323;DHT22;38263;52.920;6.238;2023-05-14T11:51:31;21.00;99.90
52323;DHT22;38263;52.920;6.238;2023-05-14T11:53:56;21.10;99.90
52323;DHT22;38263;52.920;6.238;2023-05-14T11:56:25;21.20;99.90
52323;DHT22;38263;52.920;6.238;2023-05-14T11:58:57;22.30;99.90
52323;DHT22;38263;52.920;6.238;2023-05-14T12:01:22;21.10;99.90
52323;DHT22;38263;52.920;6.238;2023-05-14T12:03:49;22.20;99.90
52323;DHT22;38263;52.920;6.238;2023-05-14T12:06:14;21.30;99.90
52323;DHT22;38263;52.920;6.238;2023-05-14T12:08:40;22.70;99.90
52323;DHT22;38263;52.920;6.238;2023-05-14T12:11:07;21.30;99.90
52323;DHT22;38263;52.920;6.238;2023-05-14T12:13:33;21.30;99.90
52323;DHT22;38263;52.920;6.238;2023-05-14T12:16:01;21.30;99.90
52323;DHT22;38263;52.920;6.238;2023-05-14T12:18:28;21.20;99.90
52323;DHT22;38263;52.920;6.238;2023-05-14T12:20:54;21.50;99.90
52323;DHT22;38263;52.920;6.238;2023-05-14T12:23:30;21.20;99.90
52323;DHT22;38263;52.920;6.238;2023-05-14T12:26:04;21.30;99.90
52323;DHT22;38263;52.920;6.238;2023-05-14T12:28:31;21.60;99.90
52323;DHT22;38263;52.920;6.238;2023-05-14T12:30:58;21.60;99.90
52323;DHT22;38263;52.920;6.238;2023-05-14T12:33:26;21.40;99.90
52323;DHT22;38263;52.920;6.238;2023-05-14T12:35:53;21.40;99.90
52323;DHT22;38263;52.920;6.238;2023-05-14T12:38:21;21.30;99.90
52323;DHT22;38263;52.920;6.238;2023-05-14T12:40:47;21.40;99.90
52323;DHT22;38263;52.920;6.238;2023-05-14T12:43:12;21.50;99.90
52323;DHT22;38263;52.920;6.238;2023-05-14T12:45:38;21.30;99.90
52323;DHT22;38263;52.920;6.238;2023-05-14T12:48:05;21.30;99.90
52323;DHT22;38263;52.920;6.238;2023-05-14T12:50:30;21.30;99.90
52323;DHT22;38263;52.920;6.238;2023-05-14T12:52:56;21.30;99.90
52323;DHT22;38263;52.920;6.238;2023-05-14T12:55:22;22.90;99.90
52323;DHT22;38263;52.920;6.238;2023-05-14T12:57:47;21.50;99.90
52323;DHT22;38263;52.920;6.238;2023-05-14T13:00:14;21.40;99.90
52323;DHT22;38263;52.920;6.238;2023-05-14T13:02:40;21.60;99.90
52323;DHT22;38263;52.920;6.238;2023-05-14T13:05:06;21.10;99.90
52323;DHT22;38263;52.920;6.238;2023-05-14T13:07:32;21.50;99.90
52323;DHT22;38263;52.920;6.238;2023-05-14T13:09:57;21.40;99.90
52323;DHT22;38263;52.920;6.238;2023-05-14T13:12:23;21.40;99.90
52323;DHT22;38263;52.920;6.238;2023-05-14T13:14:49;21.40;99.90
52323;DHT22;38263;52.920;6.238;2023-05-14T13:17:14;21.40;99.90
52323;DHT22;38263;52.920;6.238;2023-05-14T13:19:40;21.20;99.90
52323;DHT22;38263;52.920;6.238;2023-05-14T13:22:06;21.30;99.90
52323;DHT22;38263;52.920;6.238;2023-05-14T13:24:32;21.50;99.90
52323;DHT22;38263;52.920;6.238;2023-05-14T13:26:58;21.40;99.90
52323;DHT22;38263;52.920;6.238;2023-05-14T13:29:23;21.50;99.90
52323;DHT22;38263;52.920;6.238;2023-05-14T13:31:49;21.70;99.90
52323;DHT22;38263;52.920;6.238;2023-05-14T13:34:14;21.50;99.90
52323;DHT22;38263;52.920;6.238;2023-05-14T13:36:41;23.00;99.90
52323;DHT22;38263;52.920;6.238;2023-05-14T13:39:09;22.00;99.90
52323;DHT22;38263;52.920;6.238;2023-05-14T13:41:36;21.70;99.90
52323;DHT22;38263;52.920;6.238;2023-05-14T13:44:02;21.60;99.90
52323;DHT22;38263;52.920;6.238;2023-05-14T13:46:28;21.60;99.90
52323;DHT22;38263;52.920;6.238;2023-05-14T13:48:54;21.70;99.90
52323;DHT22;38263;52.920;6.238;2023-05-14T13:51:21;21.60;99.90
52323;DHT22;38263;52.920;6.238;2023-05-14T13:53:46;21.60;99.90
52323;DHT22;38263;52.920;6.238;2023-05-14T13:56:12;21.80;99.90
52323;DHT22;38263;52.920;6.238;2023-05-14T13:58:38;21.80;99.90
52323;DHT22;38263;52.920;6.238;2023-05-14T14:01:03;21.70;99.90
52323;DHT22;38263;52.920;6.238;2023-05-14T14:03:29;21.60;99.90
52323;DHT22;38263;52.920;6.238;2023-05-14T14:05:54;21.50;99.90
52323;DHT22;38263;52.920;6.238;2023-05-14T14:08:23;21.90;99.90
52323;DHT22;38263;52.920;6.238;2023-05-14T14:10:49;21.90;99.90
52323;DHT22;38263;52.920;6.238;2023-05-14T14:13:14;23.10;99.90
52323;DHT22;38263;52.920;6.238;2023-05-14T14:15:40;21.70;99.90
52323;DHT22;38263;52.920;6.238;2023-05-14T14:18:06;21.80;99.90
52323;DHT22;38263;52.920;6.238;2023-05-14T14:20:32;21.70;99.90
52323;DHT22;38263;52.920;6.238;2023-05-14T14:22:58;21.70;99.90
52323;DHT22;38263;52.920;6.238;2023-05-14T14:25:23;21.70;99.90
52323;DHT22;38263;52.920;6.238;2023-05-14T14:27:49;21.60;99.90
52323;DHT22;38263;52.920;6.238;2023-05-14T14:30:15;21.50;99.90
52323;DHT22;38263;52.920;6.238;2023-05-14T14:32:47;21.60;99.90
52323;DHT22;38263;52.920;6.238;2023-05-14T14:35:15;21.40;99.90
52323;DHT22;38263;52.920;6.238;2023-05-14T14:37:42;21.40;99.90
52323;DHT22;38263;52.920;6.238;2023-05-14T14:40:10;21.60;99.90
52323;DHT22;38263;52.920;6.238;2023-05-14T14:42:36;21.60;99.90
52323;DHT22;38263;52.920;6.238;2023-05-14T14:45:03;21.70;99.90
52323;DHT22;38263;52.920;6.238;2023-05-14T14:47:29;21.50;99.90
52323;DHT22;38263;52.920;6.238;2023-05-14T14:49:55;21.60;99.90
52323;DHT22;38263;52.920;6.238;2023-05-14T14:52:22;21.90;99.90
52323;DHT22;38263;52.920;6.238;2023-05-14T14:54:48;21.80;99.90
52323;DHT22;38263;52.920;6.238;2023-05-14T14:57:14;21.90;99.90
52323;DHT22;38263;52.920;6.238;2023-05-14T14:59:39;21.40;99.90
52323;DHT22;38263;52.920;6.238;2023-05-14T15:02:07;21.70;99.90
52323;DHT22;38263;52.920;6.238;2023-05-14T15:04:33;21.50;99.90
52323;DHT22;38263;52.920;6.238;2023-05-14T15:06:59;21.70;99.90
52323;DHT22;38263;52.920;6.238;2023-05-14T15:09:25;22.60;99.90
52323;DHT22;38263;52.920;6.238;2023-05-14T15:11:51;21.50;99.90
52323;DHT22;38263;52.920;6.238;2023-05-14T15:14:16;21.60;99.90
52323;DHT22;38263;52.920;6.238;2023-05-14T15:16:42;21.40;99.90
52323;DHT22;38263;52.920;6.238;2023-05-14T15:19:07;21.40;99.90
52323;DHT22;38263;52.920;6.238;2023-05-14T15:21:33;21.60;99.90
52323;DHT22;38263;52.920;6.238;2023-05-14T15:23:59;21.40;99.90
52323;DHT22;38263;52.920;6.238;2023-05-14T15:26:25;21.40;99.90
52323;DHT22;38263;52.920;6.238;2023-05-14T15:28:51;21.60;99.90
52323;DHT22;38263;52.920;6.238;2023-05-14T15:31:16;21.80;99.90
52323;DHT22;38263;52.920;6.238;2023-05-14T15:33:42;21.50;99.90
52323;DHT22;38263;52.920;6.238;2023-05-14T15:36:07;22.70;99.90
52323;DHT22;38263;52.920;6.238;2023-05-14T15:38:33;21.40;99.90
52323;DHT22;38263;52.920;6.238;2023-05-14T15:40:59;21.50;99.90
52323;DHT22;38263;52.920;6.238;2023-05-14T15:43:24;21.30;99.90
52323;DHT22;38263;52.920;6.238;2023-05-14T15:45:50;21.50;99.90
52323;DHT22;38263;52.920;6.238;2023-05-14T15:48:16;21.10;99.90
52323;DHT22;38263;52.920;6.238;2023-05-14T15:50:41;21.30;99.90
52323;DHT22;38263;52.920;6.238;2023-05-14T15:53:07;22.40;99.90
52323;DHT22;38263;52.920;6.238;2023-05-14T15:55:33;23.50;99.90
52323;DHT22;38263;52.920;6.238;2023-05-14T15:57:58;21.30;99.90
52323;DHT22;38263;52.920;6.238;2023-05-14T16:00:24;21.30;99.90
52323;DHT22;38263;52.920;6.238;2023-05-14T16:02:50;21.60;99.90
52323;DHT22;38263;52.920;6.238;2023-05-14T16:05:16;21.10;99.90
52323;DHT22;38263;52.920;6.238;2023-05-14T16:07:42;21.40;99.90
52323;DHT22;38263;52.920;6.238;2023-05-14T16:10:08;21.20;99.90
52323;DHT22;38263;52.920;6.238;2023-05-14T16:12:33;21.10;99.90
52323;DHT22;38263;52.920;6.238;2023-05-14T16:14:59;21.20;99.90
52323;DHT22;38263;52.920;6.238;2023-05-14T16:17:28;21.30;99.90
52323;DHT22;38263;52.920;6.238;2023-05-14T16:19:58;21.20;99.90
52323;DHT22;38263;52.920;6.238;2023-05-14T16:22:23;21.20;99.90
52323;DHT22;38263;52.920;6.238;2023-05-14T16:24:49;21.00;99.90
52323;DHT22;38263;52.920;6.238;2023-05-14T16:27:15;21.00;99.90
52323;DHT22;38263;52.920;6.238;2023-05-14T16:29:43;21.30;99.90
52323;DHT22;38263;52.920;6.238;2023-05-14T16:32:08;21.00;99.90
52323;DHT22;38263;52.920;6.238;2023-05-14T16:34:34;21.10;99.90
52323;DHT22;38263;52.920;6.238;2023-05-14T16:37:00;21.00;99.90
52323;DHT22;38263;52.920;6.238;2023-05-14T16:39:25;20.90;99.90
52323;DHT22;38263;52.920;6.238;2023-05-14T16:41:51;20.90;99.90
52323;DHT22;38263;52.920;6.238;2023-05-14T16:44:16;20.80;99.90
52323;DHT22;38263;52.920;6.238;2023-05-14T16:46:42;20.90;99.90
52323;DHT22;38263;52.920;6.238;2023-05-14T16:49:08;20.70;99.90
52323;DHT22;38263;52.920;6.238;2023-05-14T16:51:33;20.60;99.90
52323;DHT22;38263;52.920;6.238;2023-05-14T16:53:59;20.80;99.90
52323;DHT22;38263;52.920;6.238;2023-05-14T16:56:24;20.50;99.90
52323;DHT22;38263;52.920;6.238;2023-05-14T16:58:50;20.50;99.90
52323;DHT22;38263;52.920;6.238;2023-05-14T17:01:16;20.60;99.90
52323;DHT22;38263;52.920;6.238;2023-05-14T17:03:42;22.10;99.90
52323;DHT22;38263;52.920;6.238;2023-05-14T17:06:09;21.60;99.90
52323;DHT22;38263;52.920;6.238;2023-05-14T17:08:34;19.80;99.90
52323;DHT22;38263;52.920;6.238;2023-05-14T17:11:01;19.90;99.90
52323;DHT22;38263;52.920;6.238;2023-05-14T17:13:30;19.60;99.90
52323;DHT22;38263;52.920;6.238;2023-05-14T17:15:56;19.70;99.90
52323;DHT22;38263;52.920;6.238;2023-05-14T17:18:21;19.70;99.90
52323;DHT22;38263;52.920;6.238;2023-05-14T17:20:47;19.70;99.90
52323;DHT22;38263;52.920;6.238;2023-05-14T17:23:12;19.50;99.90
52323;DHT22;38263;52.920;6.238;2023-05-14T17:25:38;19.20;99.90
52323;DHT22;38263;52.920;6.238;2023-05-14T17:28:03;19.10;99.90
52323;DHT22;38263;52.920;6.238;2023-05-14T17:30:29;18.90;99.90
52323;DHT22;38263;52.920;6.238;2023-05-14T17:32:55;18.60;99.90
52323;DHT22;38263;52.920;6.238;2023-05-14T17:35:21;18.40;99.90
52323;DHT22;38263;52.920;6.238;2023-05-14T17:37:46;18.10;99.90
52323;DHT22;38263;52.920;6.238;2023-05-14T17:40:12;18.00;99.90
52323;DHT22;38263;52.920;6.238;2023-05-14T17:45:04;17.70;99.90
52323;DHT22;38263;52.920;6.238;2023-05-14T17:49:56;17.50;99.90
52323;DHT22;38263;52.920;6.238;2023-05-14T18:04:32;16.90;99.90
52323;DHT22;38263;52.920;6.238;2023-05-14T18:06:58;16.70;99.90
52323;DHT22;38263;52.920;6.238;2023-05-14T18:14:17;16.40;99.90
52323;DHT22;38263;52.920;6.238;2023-05-14T18:26:27;16.00;99.90
52323;DHT22;38263;52.920;6.238;2023-05-14T18:38:37;15.50;99.90
52323;DHT22;38263;52.920;6.238;2023-05-14T18:41:03;15.50;99.90
52323;DHT22;38263;52.920;6.238;2023-05-14T18:50:47;15.10;99.90
52323;DHT22;38263;52.920;6.238;2023-05-14T19:00:31;14.80;99.90
52323;DHT22;38263;52.920;6.238;2023-05-14T19:07:48;14.70;99.90
52323;DHT22;38263;52.920;6.238;2023-05-14T19:15:06;14.50;99.90
52323;DHT22;38263;52.920;6.238;2023-05-14T19:17:32;14.50;99.90
52323;DHT22;38263;52.920;6.238;2023-05-14T19:19:58;14.30;99.90
52323;DHT22;38263;52.920;6.238;2023-05-14T19:29:42;14.10;99.90
52323;DHT22;38263;52.920;6.238;2023-05-14T19:32:08;14.00;99.90
52323;DHT22;38263;52.920;6.238;2023-05-14T19:41:52;13.80;99.90
52323;DHT22;38263;52.920;6.238;2023-05-14T19:46:44;13.50;99.90
52323;DHT22;38263;52.920;6.238;2023-05-14T20:01:20;13.40;99.90
52323;DHT22;38263;52.920;6.238;2023-05-14T20:18:24;12.80;99.90
52323;DHT22;38263;52.920;6.238;2023-05-14T20:20:49;12.80;99.90
52323;DHT22;38263;52.920;6.238;2023-05-14T20:59:47;12.80;99.90
52323;DHT22;38263;52.920;6.238;2023-05-14T21:04:39;12.70;99.90
52323;DHT22;38263;52.920;6.238;2023-05-14T21:07:05;12.60;99.90
52323;DHT22;38263;52.920;6.238;2023-05-14T21:19:15;12.70;99.90
52323;DHT22;38263;52.920;6.238;2023-05-14T21:29:02;12.40;99.90
52323;DHT22;38263;52.920;6.238;2023-05-14T21:43:38;12.00;99.90
52323;DHT22;38263;52.920;6.238;2023-05-14T21:53:23;12.00;99.90
52323;DHT22;38263;52.920;6.238;2023-05-14T22:00:40;11.90;99.90
52323;DHT22;38263;52.920;6.238;2023-05-14T22:03:06;12.10;99.90
52323;DHT22;38263;52.920;6.238;2023-05-14T22:17:41;11.90;99.90
52323;DHT22;38263;52.920;6.238;2023-05-14T22:22:36;11.80;99.90
52323;DHT22;38263;52.920;6.238;2023-05-14T22:25:03;11.70;99.90
52323;DHT22;38263;52.920;6.238;2023-05-14T22:27:29;11.80;99.90
52323;DHT22;38263;52.920;6.238;2023-05-14T22:38:28;11.70;99.90
52323;DHT22;38263;52.920;6.238;2023-05-14T22:48:12;11.80;99.90
52323;DHT22;38263;52.920;6.238;2023-05-14T22:53:03;11.70;99.90
52323;DHT22;38263;52.920;6.238;2023-05-14T22:55:29;11.90;99.90
52323;DHT22;38263;52.920;6.238;2023-05-14T22:57:55;11.80;99.90
52323;DHT22;38263;52.920;6.238;2023-05-14T23:02:47;11.90;99.90
52323;DHT22;38263;52.920;6.238;2023-05-14T23:05:12;11.60;99.90
52323;DHT22;38263;52.920;6.238;2023-05-14T23:10:04;11.70;99.90
52323;DHT22;38263;52.920;6.238;2023-05-14T23:14:56;11.70;99.90
52323;DHT22;38263;52.920;6.238;2023-05-14T23:19:49;11.60;99.90
52323;DHT22;38263;52.920;6.238;2023-05-14T23:22:15;11.70;99.90
52323;DHT22;38263;52.920;6.238;2023-05-14T23:34:24;11.60;99.90
52323;DHT22;38263;52.920;6.238;2023-05-14T23:41:42;11.60;99.90
52323;DHT22;38263;52.920;6.238;2023-05-14T23:44:07;11.50;99.90
52323;DHT22;38263;52.920;6.238;2023-05-14T23:48:59;11.50;99.90
52323;DHT22;38263;52.920;6.238;2023-05-14T23:51:28;11.50;99.90
52323;DHT22;38263;52.920;6.238;2023-05-14T23:56:26;11.40;99.90
